Time;durP1;ratioP1;P1;durP2;ratioP2;P2;SDS_P1;SDS_P2;PMS_P1;PMS_P2;Temp;Humidity;BMP_temperature;BMP_pressure;BME280_temperature;BME280_humidity;BME280_pressure;Samples;Min_cycle;Max_cycle;Signal;HPM_P1;HPM_P2
2021/04/04 00:02:24;;;;;;;3.27;2.03;;;23.50;99.90;;;;;;5052096;28;20218;-69
2021/04/04 00:04:53;;;;;;;3.20;2.07;;;23.60;99.90;;;;;;5052296;28;20251;-69
2021/04/04 00:07:20;;;;;;;2.97;2.00;;;23.60;99.90;;;;;;5047678;28;20331;-70
2021/04/04 00:09:47;;;;;;;4.07;1.97;;;23.60;99.90;;;;;;5047215;28;20550;-71
2021/04/04 00:12:15;;;;;;;4.60;1.80;;;23.60;99.90;;;;;;5049658;28;20183;-71
2021/04/04 00:14:42;;;;;;;2.93;1.80;;;23.70;99.90;;;;;;5049500;28;20180;-70
2021/04/04 00:17:10;;;;;;;5.63;1.60;;;24.00;99.90;;;;;;5040242;28;20184;-70
2021/04/04 00:19:37;;;;;;;2.80;1.90;;;24.00;99.90;;;;;;5051539;28;20566;-72
2021/04/04 00:22:05;;;;;;;1.83;1.47;;;24.30;99.90;;;;;;5050206;28;20183;-71
2021/04/04 00:24:32;;;;;;;3.07;2.00;;;24.50;99.90;;;;;;5038836;28;20173;-70
2021/04/04 00:26:59;;;;;;;4.70;1.97;;;24.50;99.90;;;;;;5051119;28;20210;-69
2021/04/04 00:29:27;;;;;;;3.83;1.23;;;24.60;99.90;;;;;;5039087;28;20223;-70
2021/04/04 00:31:54;;;;;;;3.60;1.60;;;24.70;99.90;;;;;;5043980;28;20248;-70
2021/04/04 00:34:23;;;;;;;4.27;1.70;;;24.70;99.90;;;;;;5052030;28;20326;-70
2021/04/04 00:36:51;;;;;;;4.60;1.60;;;24.70;99.90;;;;;;5039485;28;20184;-70
2021/04/04 00:39:21;;;;;;;4.23;1.80;;;24.80;99.90;;;;;;5046698;28;20203;-70
2021/04/04 00:41:48;;;;;;;2.77;1.67;;;24.90;99.90;;;;;;5052123;28;20198;-70
2021/04/04 00:44:16;;;;;;;5.00;1.80;;;24.90;99.90;;;;;;5046743;28;20199;-71
2021/04/04 00:46:43;;;;;;;6.40;1.80;;;24.90;99.90;;;;;;5049841;28;20318;-70
2021/04/04 00:49:11;;;;;;;3.63;1.80;;;25.10;99.90;;;;;;5054850;28;20192;-71
2021/04/04 00:51:38;;;;;;;2.93;1.43;;;25.00;99.90;;;;;;5055222;28;20581;-70
2021/04/04 00:54:06;;;;;;;4.87;2.00;;;25.10;99.90;;;;;;5054631;28;20187;-69
2021/04/04 00:56:43;;;;;;;2.67;1.47;;;25.10;99.90;;;;;;5045550;28;20262;-69
2021/04/04 00:59:11;;;;;;;3.63;1.60;;;25.30;99.90;;;;;;5037184;28;20172;-71
2021/04/04 01:01:38;;;;;;;2.53;2.30;;;25.50;99.90;;;;;;5051144;28;20212;-69
2021/04/04 01:04:06;;;;;;;4.33;2.80;;;25.60;99.90;;;;;;5035431;28;20267;-69
2021/04/04 01:06:33;;;;;;;2.57;1.50;;;25.80;99.90;;;;;;5053742;28;20640;-69
2021/04/04 01:09:01;;;;;;;5.13;1.70;;;25.90;99.90;;;;;;5050812;28;20169;-70
2021/04/04 01:11:54;;;;;;;3.10;1.70;;;25.90;99.90;;;;;;5055657;28;20203;-70
2021/04/04 01:14:30;;;;;;;4.07;1.60;;;26.20;99.90;;;;;;5047387;28;20195;-71
2021/04/04 01:17:02;;;;;;;6.03;1.70;;;26.30;99.90;;;;;;5053498;28;20187;-70
2021/04/04 01:19:59;;;;;;;6.53;3.53;;;26.10;99.90;;;;;;5051488;28;20187;-69
2021/04/04 01:22:51;;;;;;;2.47;1.80;;;26.00;99.90;;;;;;5053080;28;20246;-70
2021/04/04 01:25:22;;;;;;;1.23;1.10;;;26.30;99.90;;;;;;5050542;28;20191;-69
2021/04/04 01:28:02;;;;;;;2.20;1.03;;;26.70;99.90;;;;;;5053086;28;20298;-70
2021/04/04 01:30:39;;;;;;;2.47;1.20;;;26.80;99.90;;;;;;5054900;28;20172;-69
2021/04/04 01:33:11;;;;;;;3.13;1.50;;;26.90;99.90;;;;;;5050415;28;20180;-69
2021/04/04 01:35:42;;;;;;;2.53;1.10;;;26.80;99.90;;;;;;5048496;28;20180;-69
2021/04/04 01:38:12;;;;;;;4.63;1.10;;;26.80;99.90;;;;;;5037430;28;20632;-68
2021/04/04 01:40:43;;;;;;;2.43;1.00;;;27.10;99.90;;;;;;5046971;28;20181;-71
2021/04/04 01:43:11;;;;;;;1.90;1.43;;;27.50;99.90;;;;;;5032393;28;20187;-68
2021/04/04 01:45:40;;;;;;;1.97;1.10;;;27.70;99.50;;;;;;5054336;28;20230;-68
2021/04/04 01:48:09;;;;;;;1.90;1.20;;;27.60;99.70;;;;;;5054416;28;20305;-69
2021/04/04 01:50:37;;;;;;;3.77;1.10;;;27.70;99.90;;;;;;5054126;28;20184;-68
2021/04/04 01:53:05;;;;;;;1.87;1.37;;;27.80;99.20;;;;;;5048226;28;20184;-68
2021/04/04 01:55:33;;;;;;;1.07;0.90;;;27.90;99.90;;;;;;5052442;28;20214;-69
2021/04/04 01:58:01;;;;;;;4.07;1.30;;;27.90;99.90;;;;;;5050805;28;20211;-68
2021/04/04 02:00:30;;;;;;;3.93;1.50;;;27.90;99.90;;;;;;5052051;28;20548;-70
2021/04/04 02:02:57;;;;;;;3.20;1.20;;;28.30;99.90;;;;;;5053894;28;20176;-70
2021/04/04 02:05:26;;;;;;;4.77;1.30;;;28.50;99.90;;;;;;5054978;28;20211;-69
2021/04/04 02:07:55;;;;;;;4.40;1.37;;;28.60;99.60;;;;;;5054763;28;20227;-70
2021/04/04 02:10:28;;;;;;;7.57;1.40;;;28.90;99.50;;;;;;5054692;28;20176;-70
2021/04/04 02:12:59;;;;;;;6.70;4.63;;;29.00;98.60;;;;;;5054727;28;20179;-70
2021/04/04 02:15:28;;;;;;;3.37;2.17;;;29.20;98.20;;;;;;5054366;28;20184;-71
2021/04/04 02:17:57;;;;;;;6.17;2.10;;;29.20;98.10;;;;;;5050792;28;20179;-70
2021/04/04 02:20:27;;;;;;;2.40;1.20;;;29.60;97.70;;;;;;5040577;28;20193;-70
2021/04/04 02:22:57;;;;;;;2.73;1.23;;;29.50;97.30;;;;;;5050213;28;20187;-69
2021/04/04 02:25:26;;;;;;;3.43;1.10;;;29.50;97.10;;;;;;5054382;28;20319;-70
2021/04/04 02:27:54;;;;;;;4.23;0.90;;;29.70;96.80;;;;;;5043834;28;20215;-71
2021/04/04 02:30:21;;;;;;;2.97;1.37;;;29.90;96.80;;;;;;5053994;28;20183;-70
2021/04/04 02:33:01;;;;;;;4.23;1.53;;;29.60;96.70;;;;;;5054405;28;20279;-70
2021/04/04 02:35:35;;;;;;;2.87;1.20;;;29.80;97.40;;;;;;5049083;28;20180;-70
2021/04/04 02:38:24;;;;;;;3.83;1.50;;;29.70;97.00;;;;;;5053987;28;20188;-70
2021/04/04 02:40:53;;;;;;;3.97;1.13;;;29.80;97.10;;;;;;5065306;28;20275;-70
2021/04/04 02:43:26;;;;;;;5.63;1.67;;;29.90;96.90;;;;;;5055952;28;20615;-68
2021/04/04 02:45:55;;;;;;;4.35;2.70;;;30.20;96.20;;;;;;5053121;28;20251;-69
2021/04/04 02:48:46;;;;;;;1.77;1.00;;;30.20;97.00;;;;;;5052837;28;20196;-69
2021/04/04 02:51:21;;;;;;;2.58;1.20;;;30.20;95.80;;;;;;5046316;28;20191;-69
2021/04/04 02:53:53;;;;;;;3.08;1.30;;;30.20;96.00;;;;;;5053488;28;20215;-70
2021/04/04 02:56:23;;;;;;;6.43;1.13;;;30.40;95.50;;;;;;5052282;28;20188;-70
2021/04/04 02:58:58;;;;;;;3.50;1.30;;;29.60;95.90;;;;;;5052997;28;20558;-69
2021/04/04 03:01:28;;;;;;;4.38;1.20;;;30.20;96.60;;;;;;5053086;28;20535;-69
2021/04/04 03:03:56;;;;;;;3.63;1.55;;;31.00;95.50;;;;;;5052317;28;20179;-67
2021/04/04 03:06:25;;;;;;;5.25;1.55;;;30.90;95.40;;;;;;5048065;28;20211;-68
2021/04/04 03:08:54;;;;;;;2.88;1.73;;;30.70;95.50;;;;;;5048375;28;20187;-68
2021/04/04 03:11:22;;;;;;;7.97;5.57;;;30.60;95.70;;;;;;5058029;28;20186;-70
2021/04/04 03:13:52;;;;;;;5.18;3.40;;;30.70;95.90;;;;;;5052960;28;20552;-69
2021/04/04 03:16:21;;;;;;;6.10;2.60;;;30.80;95.80;;;;;;5046240;28;20630;-69
2021/04/04 03:18:50;;;;;;;5.30;1.92;;;30.40;96.60;;;;;;5052840;28;20539;-70
2021/04/04 03:21:18;;;;;;;9.90;2.85;;;31.20;95.90;;;;;;5035361;28;20275;-69
2021/04/04 03:23:46;;;;;;;6.97;2.47;;;31.20;96.10;;;;;;5052922;28;20180;-71
2021/04/04 03:26:15;;;;;;;6.97;2.42;;;31.20;96.40;;;;;;5052498;28;20175;-69
2021/04/04 03:28:43;;;;;;;5.53;1.83;;;31.60;96.00;;;;;;5047723;28;20192;-70
2021/04/04 03:31:15;;;;;;;4.60;2.75;;;31.50;95.90;;;;;;5051471;28;20168;-70
2021/04/04 03:33:44;;;;;;;6.40;2.92;;;30.90;96.60;;;;;;5048655;28;20750;-68
2021/04/04 03:36:20;;;;;;;6.95;1.85;;;30.70;97.20;;;;;;5051923;28;20172;-69
2021/04/04 03:38:51;;;;;;;14.93;6.13;;;30.10;97.30;;;;;;5052933;28;20183;-69
2021/04/04 03:41:19;;;;;;;7.47;3.90;;;29.50;98.70;;;;;;5052673;28;20175;-69
2021/04/04 03:43:50;;;;;;;6.95;2.33;;;29.30;99.30;;;;;;5052959;28;20187;-68
2021/04/04 03:46:24;;;;;;;4.30;2.08;;;29.10;99.90;;;;;;5050288;28;20712;-68
2021/04/04 03:48:55;;;;;;;5.23;2.00;;;29.10;99.90;;;;;;5050939;28;20218;-69
2021/04/04 03:51:30;;;;;;;9.50;2.33;;;29.00;99.90;;;;;;5057231;28;20184;-70
2021/04/04 03:53:59;;;;;;;5.73;1.70;;;29.00;99.90;;;;;;5041062;28;20179;-69
2021/04/04 03:56:32;;;;;;;4.60;1.57;;;28.70;99.90;;;;;;5049860;28;20218;-70
2021/04/04 03:59:13;;;;;;;4.70;1.60;;;28.30;99.90;;;;;;5050230;28;20175;-69
2021/04/04 04:01:46;;;;;;;5.10;1.40;;;28.40;99.90;;;;;;5049782;28;20214;-69
2021/04/04 04:04:14;;;;;;;5.23;1.93;;;28.50;99.90;;;;;;5038202;28;20180;-69
2021/04/04 04:06:45;;;;;;;4.33;1.73;;;28.30;99.90;;;;;;5047782;28;20666;-69
2021/04/04 04:09:18;;;;;;;5.90;1.60;;;28.50;99.90;;;;;;5052167;28;20179;-69
2021/04/04 04:11:48;;;;;;;3.23;1.50;;;28.60;99.90;;;;;;5052477;28;20180;-70
2021/04/04 04:14:18;;;;;;;5.97;1.50;;;28.40;99.90;;;;;;5052136;28;20642;-69
2021/04/04 04:16:45;;;;;;;3.33;1.30;;;28.30;99.90;;;;;;5052427;28;20179;-70
2021/04/04 04:19:13;;;;;;;3.53;1.23;;;28.50;99.90;;;;;;5050253;28;20214;-69
2021/04/04 04:21:41;;;;;;;4.97;1.37;;;28.90;99.90;;;;;;5054344;28;20550;-69
2021/04/04 04:24:14;;;;;;;5.90;1.67;;;29.30;99.90;;;;;;5049848;28;20626;-70
2021/04/04 04:26:46;;;;;;;5.70;1.77;;;29.10;99.90;;;;;;5051156;28;20246;-68
2021/04/04 04:29:19;;;;;;;4.37;1.53;;;29.20;99.90;;;;;;5038208;28;20210;-70
2021/04/04 04:31:51;;;;;;;10.17;2.23;;;29.40;99.90;;;;;;5056189;28;20176;-71
2021/04/04 04:34:20;;;;;;;5.83;1.80;;;29.80;99.90;;;;;;5054640;28;20199;-71
2021/04/04 04:36:48;;;;;;;8.87;2.23;;;30.00;99.50;;;;;;5042451;28;20192;-71
2021/04/04 04:39:17;;;;;;;7.77;1.70;;;29.60;99.90;;;;;;5056034;28;20230;-71
2021/04/04 04:41:48;;;;;;;3.63;1.60;;;29.40;99.90;;;;;;5040739;28;20211;-71
2021/04/04 04:44:21;;;;;;;8.47;1.77;;;29.30;99.90;;;;;;5048751;28;20199;-71
2021/04/04 04:46:49;;;;;;;5.60;1.53;;;29.40;99.90;;;;;;5055615;28;20215;-70
2021/04/04 04:49:20;;;;;;;7.45;1.73;;;29.60;99.90;;;;;;5055130;28;20180;-69
2021/04/04 04:51:48;;;;;;;7.13;1.80;;;29.70;99.10;;;;;;5038047;28;20187;-69
2021/04/04 04:54:17;;;;;;;8.53;2.17;;;29.90;99.60;;;;;;5053436;28;20175;-69
2021/04/04 04:56:47;;;;;;;5.00;2.93;;;29.70;99.20;;;;;;5048403;28;20188;-68
2021/04/04 04:59:15;;;;;;;4.53;1.70;;;29.40;99.90;;;;;;5055579;28;20191;-69
2021/04/04 05:01:50;;;;;;;12.80;2.22;;;29.00;99.90;;;;;;5055336;28;20187;-70
2021/04/04 05:04:18;;;;;;;2.77;1.80;;;28.70;99.90;;;;;;5055223;28;20194;-70
2021/04/04 05:06:50;;;;;;;7.83;1.90;;;28.70;99.90;;;;;;5055501;28;20191;-70
2021/04/04 05:09:20;;;;;;;9.53;1.57;;;28.40;99.90;;;;;;5055534;28;20641;-70
2021/04/04 05:11:49;;;;;;;5.07;1.40;;;28.30;99.90;;;;;;5055403;28;20194;-70
2021/04/04 05:14:17;;;;;;;3.93;1.33;;;28.10;99.90;;;;;;5055340;28;20176;-70
2021/04/04 05:16:47;;;;;;;5.10;1.50;;;28.10;99.90;;;;;;5050590;28;20187;-69
2021/04/04 05:19:15;;;;;;;4.40;1.60;;;28.00;99.90;;;;;;5054234;28;20184;-70
2021/04/04 05:21:45;;;;;;;6.47;2.10;;;27.90;99.90;;;;;;5036460;28;20184;-71
2021/04/04 05:24:14;;;;;;;4.43;1.77;;;27.90;99.90;;;;;;5054975;28;20194;-70
2021/04/04 05:26:44;;;;;;;5.63;1.87;;;28.30;99.90;;;;;;5050498;28;20204;-70
2021/04/04 05:29:17;;;;;;;3.63;1.60;;;28.40;99.90;;;;;;5055097;28;20191;-70
2021/04/04 05:31:52;;;;;;;6.67;1.87;;;28.30;99.90;;;;;;5054967;28;20662;-70
2021/04/04 05:34:22;;;;;;;7.27;1.80;;;28.20;99.90;;;;;;5053744;28;20183;-70
2021/04/04 05:36:56;;;;;;;4.13;1.80;;;27.90;99.90;;;;;;5054660;28;20607;-70
2021/04/04 05:39:29;;;;;;;7.03;1.73;;;27.70;99.90;;;;;;5044492;28;20176;-69
2021/04/04 05:41:58;;;;;;;5.87;2.00;;;27.60;99.90;;;;;;5054582;28;20188;-70
2021/04/04 05:44:40;;;;;;;10.13;1.70;;;27.30;99.90;;;;;;5052070;28;20184;-69
2021/04/04 05:47:43;;;;;;;5.10;1.40;;;27.40;99.90;;;;;;5052159;28;20219;-69
2021/04/04 05:50:25;;;;;;;4.63;1.30;;;27.20;99.90;;;;;;5054797;28;20244;-69
2021/04/04 05:53:01;;;;;;;3.93;1.40;;;27.60;99.90;;;;;;5051100;28;20259;-70
2021/04/04 05:55:52;;;;;;;4.73;1.30;;;28.30;99.90;;;;;;5038906;28;20186;-72
2021/04/04 05:58:40;;;;;;;7.57;1.70;;;28.50;99.90;;;;;;5042586;28;20172;-70
2021/04/04 06:01:44;;;;;;;6.33;1.63;;;28.50;99.90;;;;;;5048323;28;20195;-69
2021/04/04 06:04:57;;;;;;;9.13;1.70;;;28.80;99.90;;;;;;5054084;28;20561;-69
2021/04/04 06:07:59;;;;;;;6.88;1.63;;;29.10;99.80;;;;;;5042481;28;20223;-69
2021/04/04 06:10:51;;;;;;;3.23;1.50;;;29.40;99.60;;;;;;4999463;28;20198;-69
2021/04/04 06:13:38;;;;;;;5.50;1.37;;;29.40;99.20;;;;;;5044684;28;20192;-71
2021/04/04 06:16:20;;;;;;;7.65;1.90;;;30.00;98.30;;;;;;5049921;28;20203;-70
2021/04/04 06:19:06;;;;;;;4.80;1.35;;;30.10;97.50;;;;;;5053951;28;20216;-72
2021/04/04 06:21:37;;;;;;;5.60;1.48;;;29.90;97.70;;;;;;5054167;28;20180;-70
2021/04/04 06:24:26;;;;;;;5.60;1.35;;;30.00;97.70;;;;;;5051656;28;20666;-70
2021/04/04 06:27:21;;;;;;;9.80;1.40;;;30.00;97.70;;;;;;5049486;28;20540;-73
2021/04/04 06:30:45;;;;;;;7.40;1.25;;;29.80;98.00;;;;;;5052615;28;20175;-71
2021/04/04 06:33:17;;;;;;;5.13;1.30;;;29.90;97.60;;;;;;5053630;28;20221;-71
2021/04/04 06:36:07;;;;;;;4.53;1.33;;;29.80;97.90;;;;;;5051974;28;20188;-69
2021/04/04 06:39:38;;;;;;;5.00;1.30;;;29.80;97.70;;;;;;5010801;28;20195;-68
2021/04/04 06:42:14;;;;;;;5.50;1.10;;;29.90;97.80;;;;;;4972386;28;20214;-69
2021/04/04 06:45:04;;;;;;;4.25;1.15;;;30.00;97.60;;;;;;4971215;28;20243;-68
2021/04/04 06:47:34;;;;;;;6.13;1.35;;;30.10;97.40;;;;;;5041781;28;20701;-70
2021/04/04 06:50:22;;;;;;;5.75;1.60;;;29.70;98.00;;;;;;5053248;28;20309;-70
2021/04/04 06:52:49;;;;;;;2.33;1.15;;;29.70;98.10;;;;;;5052949;28;20534;-68
2021/04/04 06:55:40;;;;;;;5.70;1.30;;;29.60;98.00;;;;;;5053474;28;20208;-70
2021/04/04 06:58:18;;;;;;;8.77;1.25;;;29.90;97.60;;;;;;5051491;28;20187;-68
2021/04/04 07:01:06;;;;;;;8.35;6.05;;;29.80;97.70;;;;;;5052483;28;20187;-68
2021/04/04 07:03:56;;;;;;;11.23;5.70;;;29.70;98.00;;;;;;5053081;28;20214;-70
2021/04/04 07:06:50;;;;;;;8.65;1.63;;;29.40;98.60;;;;;;5049599;28;20554;-69
2021/04/04 07:09:53;;;;;;;4.75;1.75;;;29.00;98.90;;;;;;5053228;28;20175;-70
2021/04/04 07:12:38;;;;;;;6.20;1.47;;;28.80;99.30;;;;;;5039772;28;20526;-69
2021/04/04 07:15:17;;;;;;;5.17;1.63;;;28.50;99.80;;;;;;5051639;28;20179;-69
2021/04/04 07:18:13;;;;;;;4.07;1.83;;;28.30;99.90;;;;;;5053227;28;20211;-69
2021/04/04 07:20:52;;;;;;;6.90;1.13;;;28.30;99.90;;;;;;5052665;28;20271;-70
2021/04/04 07:23:40;;;;;;;5.83;1.57;;;27.90;99.90;;;;;;5050891;28;20195;-68
2021/04/04 07:26:32;;;;;;;4.00;1.30;;;27.50;99.90;;;;;;5052508;28;20577;-69
2021/04/04 07:29:37;;;;;;;9.03;1.60;;;27.00;99.90;;;;;;5041722;28;20176;-68
2021/04/04 07:32:15;;;;;;;2.43;1.37;;;26.60;99.90;;;;;;5047727;28;20184;-69
2021/04/04 07:35:08;;;;;;;6.97;1.50;;;26.30;99.90;;;;;;5047234;28;20184;-69
2021/04/04 07:37:53;;;;;;;4.47;1.60;;;26.10;99.90;;;;;;5044308;28;20193;-69
2021/04/04 07:40:35;;;;;;;5.50;1.80;;;26.00;99.90;;;;;;5052811;28;20183;-69
2021/04/04 07:43:09;;;;;;;5.40;1.70;;;25.80;99.90;;;;;;5052484;28;20246;-69
2021/04/04 07:46:05;;;;;;;5.43;1.60;;;25.60;99.90;;;;;;5048711;28;20238;-69
2021/04/04 07:49:02;;;;;;;7.47;1.47;;;25.40;99.90;;;;;;5051423;28;20191;-68
2021/04/04 07:51:37;;;;;;;8.00;1.97;;;25.20;99.90;;;;;;5039673;28;20549;-69
2021/04/04 07:54:07;;;;;;;5.60;1.83;;;25.10;99.90;;;;;;5043148;28;20198;-68
2021/04/04 07:56:40;;;;;;;7.93;1.50;;;25.00;99.90;;;;;;5051903;28;20278;-69
2021/04/04 07:59:22;;;;;;;5.93;2.03;;;24.80;99.90;;;;;;5039437;28;20219;-69
2021/04/04 08:02:08;;;;;;;6.67;1.63;;;24.70;99.90;;;;;;5049721;28;20592;-70
2021/04/04 08:04:40;;;;;;;6.70;1.57;;;24.60;99.90;;;;;;5051893;28;20196;-70
2021/04/04 08:07:24;;;;;;;6.57;1.60;;;24.50;99.90;;;;;;5052382;28;20688;-70
2021/04/04 08:10:11;;;;;;;9.20;1.87;;;24.50;99.90;;;;;;5052101;28;20271;-70
2021/04/04 08:12:49;;;;;;;6.27;1.73;;;24.40;99.90;;;;;;5041589;28;20606;-70
2021/04/04 08:15:20;;;;;;;4.33;1.70;;;24.30;99.90;;;;;;5051945;28;20633;-70
2021/04/04 08:17:48;;;;;;;7.97;1.57;;;24.30;99.90;;;;;;5052255;28;20190;-70
2021/04/04 08:20:43;;;;;;;5.40;1.67;;;24.20;99.90;;;;;;5051834;28;20661;-70
2021/04/04 08:23:51;;;;;;;4.10;1.60;;;24.10;99.90;;;;;;5048751;28;20662;-69
2021/04/04 08:26:33;;;;;;;7.07;1.40;;;24.10;99.90;;;;;;4963260;28;20257;-70
2021/04/04 08:29:08;;;;;;;6.60;1.73;;;24.00;99.90;;;;;;5051899;28;20179;-70
2021/04/04 08:31:48;;;;;;;6.80;1.40;;;24.00;99.90;;;;;;5043018;28;20279;-70
2021/04/04 08:34:41;;;;;;;5.90;1.90;;;23.90;99.90;;;;;;5050767;28;20183;-69
2021/04/04 08:37:14;;;;;;;5.50;1.80;;;23.90;99.90;;;;;;5039247;28;20188;-70
2021/04/04 08:39:53;;;;;;;11.20;1.70;;;23.90;99.90;;;;;;5046948;28;20234;-69
2021/04/04 08:42:21;;;;;;;7.50;2.17;;;23.80;99.90;;;;;;5047276;28;20271;-69
2021/04/04 08:45:04;;;;;;;4.13;1.53;;;23.80;99.90;;;;;;5051795;28;20227;-69
2021/04/04 08:47:41;;;;;;;6.30;1.43;;;23.80;99.90;;;;;;5051258;28;20250;-69
2021/04/04 08:50:17;;;;;;;7.27;1.30;;;23.70;99.90;;;;;;5051755;28;20180;-69
2021/04/04 08:53:14;;;;;;;10.37;1.87;;;23.70;99.90;;;;;;5044505;28;20228;-71
2021/04/04 08:55:46;;;;;;;9.80;1.83;;;23.70;99.90;;;;;;5051933;28;20180;-69
2021/04/04 08:58:20;;;;;;;8.47;1.90;;;23.70;99.90;;;;;;5051490;28;20187;-69
2021/04/04 09:00:51;;;;;;;7.50;1.53;;;23.70;99.90;;;;;;5045923;28;20188;-71
2021/04/04 09:03:23;;;;;;;10.07;3.30;;;23.70;99.90;;;;;;5051632;28;20271;-70
2021/04/04 09:06:01;;;;;;;10.00;3.30;;;23.60;99.90;;;;;;5047960;28;20184;-70
2021/04/04 09:08:30;;;;;;;5.10;2.30;;;23.70;99.90;;;;;;5034423;28;20563;-70
2021/04/04 09:10:58;;;;;;;6.43;1.97;;;23.60;99.90;;;;;;5051376;28;20185;-70
2021/04/04 09:13:32;;;;;;;6.60;2.03;;;23.60;99.90;;;;;;5055008;28;20191;-71
2021/04/04 09:16:07;;;;;;;8.23;2.50;;;23.60;99.90;;;;;;5055002;28;20530;-70
2021/04/04 09:18:42;;;;;;;7.77;1.83;;;23.60;99.90;;;;;;5054491;28;20240;-70
2021/04/04 09:21:10;;;;;;;8.70;2.07;;;23.60;99.90;;;;;;5051756;28;20195;-70
2021/04/04 09:23:38;;;;;;;6.20;2.10;;;23.60;99.90;;;;;;5049328;28;20199;-70
2021/04/04 09:26:08;;;;;;;6.43;2.17;;;23.60;99.90;;;;;;5055078;28;20225;-70
2021/04/04 09:28:41;;;;;;;6.27;1.90;;;23.60;99.90;;;;;;5054602;28;20196;-69
2021/04/04 09:31:39;;;;;;;6.83;2.03;;;23.60;99.90;;;;;;5055020;28;20523;-70
2021/04/04 09:34:14;;;;;;;5.13;1.70;;;23.60;99.90;;;;;;5054721;28;20180;-70
2021/04/04 09:36:50;;;;;;;11.30;2.10;;;23.60;99.90;;;;;;5053322;28;20189;-71
2021/04/04 09:39:39;;;;;;;5.20;1.87;;;23.60;99.90;;;;;;5054929;28;20178;-69
2021/04/04 09:42:07;;;;;;;5.10;1.77;;;23.60;99.90;;;;;;5054956;28;20180;-70
2021/04/04 09:44:35;;;;;;;6.93;2.27;;;23.60;99.90;;;;;;5054398;28;20175;-70
2021/04/04 09:47:05;;;;;;;6.33;2.30;;;23.60;99.90;;;;;;5035920;28;20216;-70
2021/04/04 09:49:45;;;;;;;6.27;2.30;;;23.50;99.90;;;;;;5054285;28;20171;-70
2021/04/04 09:52:24;;;;;;;11.00;5.73;;;23.50;99.90;;;;;;5046430;28;20211;-70
2021/04/04 09:55:10;;;;;;;10.50;6.47;;;23.50;99.90;;;;;;5033318;28;20187;-70
2021/04/04 09:57:45;;;;;;;8.27;2.57;;;23.50;99.90;;;;;;5048322;28;20650;-70
2021/04/04 10:00:39;;;;;;;8.70;1.90;;;23.50;99.90;;;;;;5040766;28;20176;-70
2021/04/04 10:03:17;;;;;;;10.03;2.43;;;23.50;99.90;;;;;;5046260;28;20184;-70
2021/04/04 10:05:47;;;;;;;9.33;2.03;;;23.40;99.90;;;;;;5054474;28;20546;-68
2021/04/04 10:08:32;;;;;;;7.90;1.93;;;23.40;99.90;;;;;;5053931;28;20768;-70
2021/04/04 10:11:00;;;;;;;7.13;2.10;;;23.40;99.90;;;;;;5053906;28;20184;-70
2021/04/04 10:13:29;;;;;;;7.63;1.90;;;23.40;99.90;;;;;;5053474;28;20678;-69
2021/04/04 10:15:58;;;;;;;4.77;1.90;;;23.40;99.90;;;;;;5052207;28;20182;-69
2021/04/04 10:18:26;;;;;;;7.77;2.27;;;23.40;99.90;;;;;;5052671;28;20263;-70
2021/04/04 10:20:55;;;;;;;10.67;8.47;;;23.40;99.90;;;;;;5057539;28;20682;-70
2021/04/04 10:23:31;;;;;;;13.97;6.23;;;23.40;99.90;;;;;;5029941;28;20184;-69
2021/04/04 10:26:06;;;;;;;6.43;2.33;;;23.40;99.90;;;;;;5041392;28;20210;-70
2021/04/04 10:28:51;;;;;;;8.90;2.40;;;23.40;99.90;;;;;;5053692;28;20273;-70
2021/04/04 10:31:19;;;;;;;9.43;2.40;;;23.30;99.90;;;;;;5042639;28;20576;-70
2021/04/04 10:33:57;;;;;;;6.57;1.90;;;23.30;99.90;;;;;;5055744;28;20188;-70
2021/04/04 10:36:27;;;;;;;7.17;1.93;;;23.30;99.90;;;;;;5053849;28;20179;-70
2021/04/04 10:38:55;;;;;;;4.23;1.77;;;23.30;99.90;;;;;;5053725;28;20210;-70
2021/04/04 10:41:32;;;;;;;4.80;1.73;;;23.30;99.90;;;;;;5045002;28;20254;-71
2021/04/04 10:44:00;;;;;;;8.60;2.10;;;23.30;99.90;;;;;;5053717;28;20183;-71
2021/04/04 10:46:35;;;;;;;9.33;1.73;;;23.30;99.90;;;;;;5052383;28;20219;-71
2021/04/04 10:49:04;;;;;;;8.83;2.27;;;23.20;99.90;;;;;;5044369;28;20638;-71
2021/04/04 10:51:32;;;;;;;9.47;1.77;;;23.30;99.90;;;;;;5047884;28;20667;-70
2021/04/04 10:54:00;;;;;;;6.70;1.97;;;23.30;99.90;;;;;;5046135;28;20188;-69
2021/04/04 10:56:29;;;;;;;3.67;1.70;;;23.30;99.90;;;;;;5040659;28;20184;-69
2021/04/04 10:58:59;;;;;;;4.03;1.30;;;23.30;99.90;;;;;;5053668;28;20187;-69
2021/04/04 11:01:30;;;;;;;9.67;2.37;;;23.30;99.90;;;;;;5051316;28;20172;-70
2021/04/04 11:03:58;;;;;;;8.57;2.30;;;23.30;99.90;;;;;;5044847;28;20192;-69
2021/04/04 11:06:25;;;;;;;6.47;2.07;;;23.30;99.90;;;;;;5053007;28;20179;-69
2021/04/04 11:08:53;;;;;;;8.70;2.10;;;23.30;99.90;;;;;;5048350;28;20195;-71
2021/04/04 11:11:21;;;;;;;10.17;2.17;;;23.30;99.90;;;;;;5053398;28;20175;-70
2021/04/04 11:13:52;;;;;;;8.03;6.00;;;23.30;99.90;;;;;;5052817;28;20184;-70
2021/04/04 11:16:25;;;;;;;11.20;9.40;;;23.20;99.90;;;;;;5046714;28;20203;-70
2021/04/04 11:18:56;;;;;;;8.43;3.77;;;23.20;99.90;;;;;;5051498;28;20680;-70
2021/04/04 11:21:38;;;;;;;8.03;2.63;;;23.10;99.90;;;;;;5053128;28;20176;-71
2021/04/04 11:24:16;;;;;;;8.87;2.50;;;23.10;99.90;;;;;;5043158;28;20176;-70
2021/04/04 11:26:57;;;;;;;3.43;1.90;;;23.10;99.90;;;;;;5050608;28;20327;-71
2021/04/04 11:29:26;;;;;;;5.00;2.27;;;23.10;99.90;;;;;;5049364;28;20260;-71
2021/04/04 11:32:16;;;;;;;2.30;1.40;;;23.10;99.90;;;;;;5043570;28;20543;-71
2021/04/04 11:34:57;;;;;;;8.77;1.90;;;23.10;99.90;;;;;;5051433;28;20586;-71
2021/04/04 11:37:31;;;;;;;3.57;1.93;;;23.10;99.90;;;;;;5052274;28;20201;-71
2021/04/04 11:40:21;;;;;;;4.50;2.00;;;23.10;99.90;;;;;;5052579;28;20266;-70
2021/04/04 11:42:52;;;;;;;9.70;3.07;;;23.10;99.90;;;;;;5052087;28;20202;-70
2021/04/04 11:45:40;;;;;;;5.00;2.03;;;23.10;99.90;;;;;;5049597;28;20255;-70
2021/04/04 11:48:31;;;;;;;5.27;1.60;;;23.10;99.90;;;;;;5052615;28;20693;-71
2021/04/04 11:51:14;;;;;;;4.53;1.80;;;23.00;99.90;;;;;;5051602;28;20772;-71
2021/04/04 11:53:47;;;;;;;5.63;1.80;;;23.00;99.90;;;;;;5051104;28;20205;-70
2021/04/04 11:56:43;;;;;;;11.83;5.93;;;23.00;99.90;;;;;;5049132;28;20237;-70
2021/04/04 11:59:11;;;;;;;8.90;4.60;;;22.90;99.90;;;;;;5048020;28;20233;-69
2021/04/04 12:01:39;;;;;;;5.20;2.80;;;22.90;99.90;;;;;;5052575;28;20180;-71
2021/04/04 12:04:35;;;;;;;7.10;2.00;;;22.90;99.90;;;;;;5051864;28;20172;-70
2021/04/04 12:07:07;;;;;;;6.63;2.40;;;22.80;99.90;;;;;;5042076;28;20212;-69
2021/04/04 12:09:36;;;;;;;5.93;2.47;;;22.80;99.90;;;;;;5051831;28;20195;-71
2021/04/04 12:12:05;;;;;;;4.40;2.67;;;22.80;99.90;;;;;;5051497;28;20176;-70
2021/04/04 12:14:44;;;;;;;2.73;1.43;;;22.70;99.90;;;;;;5051414;28;20537;-70
2021/04/04 12:17:12;;;;;;;4.50;1.83;;;22.70;99.90;;;;;;5049137;28;20637;-70
2021/04/04 12:19:41;;;;;;;10.43;2.20;;;22.70;99.90;;;;;;5035099;28;20185;-69
2021/04/04 12:22:09;;;;;;;4.50;1.77;;;22.70;99.90;;;;;;5048109;28;20234;-70
2021/04/04 12:24:49;;;;;;;5.60;2.10;;;22.70;99.90;;;;;;5048365;28;20179;-70
2021/04/04 12:27:28;;;;;;;5.37;2.40;;;22.60;99.90;;;;;;5050621;28;20227;-69
2021/04/04 12:29:57;;;;;;;4.87;2.03;;;22.60;99.90;;;;;;5041997;28;20208;-70
2021/04/04 12:32:30;;;;;;;4.30;1.83;;;22.60;99.90;;;;;;5048768;28;20196;-70
2021/04/04 12:35:00;;;;;;;3.60;1.80;;;22.60;99.90;;;;;;5042320;28;20225;-69
2021/04/04 12:37:30;;;;;;;5.27;1.90;;;22.50;99.90;;;;;;5047646;28;20180;-70
2021/04/04 12:40:01;;;;;;;5.87;1.93;;;22.50;99.90;;;;;;5047654;28;20234;-70
2021/04/04 12:42:32;;;;;;;4.77;1.90;;;22.50;99.90;;;;;;5053465;28;20249;-70
2021/04/04 12:45:08;;;;;;;3.17;1.67;;;22.50;99.90;;;;;;5054270;28;20628;-69
2021/04/04 12:47:38;;;;;;;8.40;2.77;;;22.50;99.90;;;;;;5055168;28;20211;-70
2021/04/04 12:50:14;;;;;;;7.37;2.40;;;22.50;99.90;;;;;;5051052;28;20558;-69
2021/04/04 12:52:49;;;;;;;11.23;7.37;;;22.50;99.90;;;;;;5055374;28;20192;-69
2021/04/04 12:55:26;;;;;;;13.27;10.10;;;22.50;99.90;;;;;;5039583;28;20673;-70
2021/04/04 12:58:20;;;;;;;6.07;3.83;;;22.40;99.90;;;;;;5035094;28;20183;-70
2021/04/04 13:00:49;;;;;;;10.93;2.23;;;22.40;99.90;;;;;;5030480;28;20196;-70
2021/04/04 13:03:18;;;;;;;3.50;2.33;;;22.40;99.90;;;;;;5054063;28;20195;-69
2021/04/04 13:05:46;;;;;;;5.63;1.90;;;22.40;99.90;;;;;;5055488;28;20211;-70
2021/04/04 13:08:26;;;;;;;3.50;1.90;;;22.40;99.90;;;;;;5045979;28;20216;-69
2021/04/04 13:10:57;;;;;;;4.20;1.80;;;22.30;99.90;;;;;;5055478;28;20180;-70
2021/04/04 13:13:37;;;;;;;6.27;1.50;;;22.30;99.90;;;;;;5040024;28;20196;-69
2021/04/04 13:16:06;;;;;;;3.13;1.70;;;22.30;99.90;;;;;;5049329;28;20267;-69
2021/04/04 13:18:35;;;;;;;5.33;1.83;;;22.30;99.90;;;;;;5052225;28;20187;-69
2021/04/04 13:21:13;;;;;;;3.80;2.27;;;22.30;99.90;;;;;;5049516;28;20184;-71
2021/04/04 13:23:43;;;;;;;6.73;1.90;;;22.30;99.90;;;;;;5033189;28;20191;-70
2021/04/04 13:26:19;;;;;;;5.30;1.90;;;22.30;99.90;;;;;;5055083;28;20184;-69
2021/04/04 13:29:18;;;;;;;6.23;1.90;;;22.30;99.90;;;;;;5054846;28;20278;-70